Abakan, Russia
Current Conditions -  °F | °C
As of 5:30 AM on Monday 24 Nov 2014 (Local Time) from UNAA Reporting Station
Overcast Overcast  
Wind Chill: 17°   Ceiling: 7300
Heat Index: 23°   Visibility: 4mi
Dew Point: 14°   Wind: 4mph
Humidity: 68%   Direction: NA
Pressure: 29.65"   Gusts: NA
Location:  53.72°N, 91.43°E
Report Text: UNAA 232230Z VRB02MPS 7000 SCT030CB OVC073 M05/M10 Q1004 NOSIGRMK QFE731 20190055
Loading
Personal Weather Stations






























Interactive Weather Map New forecast layout! Learn more

10-Day Weather Forecast

Advertisements
Track Severe Weather on mobile